Time;durP1;ratioP1;P1;durP2;ratioP2;P2;SDS_P1;SDS_P2;PMS_P1;PMS_P2;Temp;Humidity;BMP_temperature;BMP_pressure;BME280_temperature;BME280_humidity;BME280_pressure;Samples;Min_cycle;Max_cycle;Signal;HPM_P1;HPM_P2
2021/07/24 00:01:23;;;;;;;2.90;2.13;;;;;;;;;;5097501;28;20233;-63
2021/07/24 00:03:51;;;;;;;6.70;2.40;;;;;;;;;;5097531;28;20844;-64
2021/07/24 00:06:31;;;;;;;3.97;2.53;;;;;;;;;;5097912;28;20230;-64
2021/07/24 00:09:04;;;;;;;3.53;2.33;;;;;;;;;;5097610;28;20224;-63
2021/07/24 00:11:32;;;;;;;3.77;2.73;;;;;;;;;;5097070;28;20235;-63
2021/07/24 00:14:00;;;;;;;2.57;2.20;;;;;;;;;;5097439;28;20237;-64
2021/07/24 00:16:30;;;;;;;4.93;2.50;;;;;;;;;;5097804;28;20286;-63
2021/07/24 00:18:58;;;;;;;5.00;2.60;;;;;;;;;;5097554;28;20208;-64
2021/07/24 00:21:26;;;;;;;4.10;2.40;;;;;;;;;;5096564;28;20221;-64
2021/07/24 00:23:54;;;;;;;1.80;1.70;;;;;;;;;;5097468;28;20213;-64
2021/07/24 00:26:22;;;;;;;2.13;1.97;;;;;;;;;;5098303;28;20204;-65
2021/07/24 00:28:51;;;;;;;2.67;2.30;;;;;;;;;;5097758;28;20701;-65
2021/07/24 00:31:19;;;;;;;4.32;2.35;;;;;;;;;;5097704;28;20288;-65
2021/07/24 00:33:48;;;;;;;4.00;2.10;;;;;;;;;;5097638;28;20647;-65
2021/07/24 00:36:16;;;;;;;3.35;2.35;;;;;;;;;;5097432;28;20571;-65
2021/07/24 00:38:44;;;;;;;4.95;2.22;;;;;;;;;;5097685;28;20238;-65
2021/07/24 00:41:16;;;;;;;3.53;2.30;;;;;;;;;;5097668;28;20218;-65
2021/07/24 00:43:45;;;;;;;3.55;2.30;;;;;;;;;;5097537;28;20205;-66
2021/07/24 00:46:14;;;;;;;3.73;2.00;;;;;;;;;;5096572;28;20584;-65
2021/07/24 00:48:43;;;;;;;3.00;2.00;;;;;;;;;;5097083;28;20234;-65
2021/07/24 00:51:13;;;;;;;2.80;2.50;;;;;;;;;;5097789;28;20729;-65
2021/07/24 00:53:41;;;;;;;5.45;1.98;;;;;;;;;;5097322;28;20301;-65
2021/07/24 00:56:09;;;;;;;2.40;2.20;;;;;;;;;;5097414;28;20221;-65
2021/07/24 00:58:37;;;;;;;5.03;2.33;;;;;;;;;;5097478;28;20205;-65
2021/07/24 01:01:06;;;;;;;4.05;2.35;;;;;;;;;;5097087;28;20216;-65
2021/07/24 01:03:35;;;;;;;5.40;2.45;;;;;;;;;;5097018;28;20214;-65
2021/07/24 01:06:03;;;;;;;3.57;2.30;;;;;;;;;;5097393;28;20206;-65
2021/07/24 01:08:33;;;;;;;4.57;2.40;;;;;;;;;;5097170;28;20262;-65
2021/07/24 01:11:02;;;;;;;6.90;2.43;;;;;;;;;;5097229;28;20279;-65
2021/07/24 01:13:30;;;;;;;2.47;2.23;;;;;;;;;;5097738;28;20201;-65
2021/07/24 01:15:58;;;;;;;3.30;2.80;;;;;;;;;;5097381;28;20299;-65
2021/07/24 01:18:26;;;;;;;3.67;2.60;;;;;;;;;;5099008;28;20601;-65
2021/07/24 01:20:54;;;;;;;2.93;2.30;;;;;;;;;;5092429;28;20203;-66
2021/07/24 01:23:24;;;;;;;2.70;2.47;;;;;;;;;;5095948;28;20258;-66
2021/07/24 01:25:52;;;;;;;4.07;2.27;;;;;;;;;;5098028;28;20223;-66
2021/07/24 01:28:24;;;;;;;3.23;2.40;;;;;;;;;;5104663;28;20217;-65
2021/07/24 01:30:52;;;;;;;7.73;3.00;;;;;;;;;;5105531;28;20193;-65
2021/07/24 01:33:20;;;;;;;4.73;2.73;;;;;;;;;;5104889;28;20228;-64
2021/07/24 01:35:48;;;;;;;2.93;2.60;;;;;;;;;;5092569;28;20204;-64
2021/07/24 01:38:16;;;;;;;5.20;2.63;;;;;;;;;;5086315;28;20220;-65
2021/07/24 01:40:46;;;;;;;2.78;2.50;;;;;;;;;;5086747;28;20195;-65
2021/07/24 01:43:13;;;;;;;3.47;2.63;;;;;;;;;;5089332;28;20228;-65
2021/07/24 01:45:42;;;;;;;5.40;2.77;;;;;;;;;;5084446;28;20758;-64
2021/07/24 01:48:14;;;;;;;3.45;2.53;;;;;;;;;;5089946;28;20228;-64
2021/07/24 01:53:30;;;;;;;2.78;2.53;;;;;;;;;;5084319;28;20204;-63
2021/07/24 01:56:01;;;;;;;3.03;2.40;;;;;;;;;;5094856;28;20204;-64
2021/07/24 01:58:30;;;;;;;2.50;2.30;;;;;;;;;;5097060;28;20199;-64
2021/07/24 02:01:00;;;;;;;3.30;2.83;;;;;;;;;;5096853;28;20577;-65
2021/07/24 02:03:30;;;;;;;6.03;3.05;;;;;;;;;;5094265;28;20584;-63
2021/07/24 02:05:58;;;;;;;5.17;2.53;;;;;;;;;;5097051;28;20706;-63
2021/07/24 02:08:28;;;;;;;4.77;2.77;;;;;;;;;;5087034;28;20217;-63
2021/07/24 02:10:56;;;;;;;7.40;3.00;;;;;;;;;;5085346;28;20202;-63
2021/07/24 02:13:28;;;;;;;3.13;2.37;;;;;;;;;;5089701;28;20653;-63
2021/07/24 02:15:57;;;;;;;2.87;2.50;;;;;;;;;;5086061;28;20290;-64
2021/07/24 02:18:25;;;;;;;2.53;2.33;;;;;;;;;;5086663;28;20194;-63
2021/07/24 02:20:54;;;;;;;2.87;2.57;;;;;;;;;;5086332;28;20206;-65
2021/07/24 02:23:22;;;;;;;4.33;2.37;;;;;;;;;;5086656;28;20222;-63
2021/07/24 02:25:50;;;;;;;3.07;1.90;;;;;;;;;;5085963;28;20567;-63
2021/07/24 02:28:18;;;;;;;3.87;2.30;;;;;;;;;;5083030;28;20206;-63
2021/07/24 02:30:47;;;;;;;2.50;2.30;;;;;;;;;;5087741;28;20198;-63
2021/07/24 02:33:15;;;;;;;3.37;2.57;;;;;;;;;;5092828;28;20224;-64
2021/07/24 02:35:43;;;;;;;2.53;2.23;;;;;;;;;;5107853;28;20206;-64
2021/07/24 02:38:11;;;;;;;3.37;2.60;;;;;;;;;;5108645;28;20260;-64
2021/07/24 02:40:40;;;;;;;2.80;2.57;;;;;;;;;;5107901;28;20193;-64
2021/07/24 02:43:08;;;;;;;3.83;2.43;;;;;;;;;;5108193;28;20221;-64
2021/07/24 02:45:36;;;;;;;3.72;2.67;;;;;;;;;;5100704;28;20640;-63
2021/07/24 02:48:06;;;;;;;2.67;2.47;;;;;;;;;;5092547;28;20647;-64
2021/07/24 02:50:34;;;;;;;2.83;2.23;;;;;;;;;;5090460;28;20232;-64
2021/07/24 02:53:02;;;;;;;3.33;3.03;;;;;;;;;;5090429;28;20220;-63
2021/07/24 02:55:30;;;;;;;4.23;2.63;;;;;;;;;;5089235;28;20206;-63
2021/07/24 02:57:58;;;;;;;7.43;2.90;;;;;;;;;;5090205;28;20582;-63
2021/07/24 03:00:26;;;;;;;6.00;2.53;;;;;;;;;;5090128;28;20206;-64
2021/07/24 03:02:54;;;;;;;4.83;2.70;;;;;;;;;;5098222;28;20220;-64
2021/07/24 03:05:23;;;;;;;3.57;2.50;;;;;;;;;;5102221;28;20224;-64
2021/07/24 03:07:51;;;;;;;2.80;2.60;;;;;;;;;;5107619;28;20292;-64
2021/07/24 03:10:19;;;;;;;8.00;2.63;;;;;;;;;;5108401;28;20731;-64
2021/07/24 03:12:47;;;;;;;2.83;2.37;;;;;;;;;;5106609;27;20587;-64
2021/07/24 03:15:15;;;;;;;5.57;2.60;;;;;;;;;;5108358;28;20197;-63
2021/07/24 03:17:43;;;;;;;4.43;2.57;;;;;;;;;;5103113;28;20203;-64
2021/07/24 03:20:12;;;;;;;4.30;2.87;;;;;;;;;;5091846;28;20206;-63
2021/07/24 03:22:41;;;;;;;4.90;2.63;;;;;;;;;;5108326;28;20247;-63
2021/07/24 03:25:09;;;;;;;4.63;2.20;;;;;;;;;;5117418;28;20255;-63
2021/07/24 03:27:37;;;;;;;4.73;2.60;;;;;;;;;;5099346;28;20213;-64
2021/07/24 03:30:06;;;;;;;4.53;2.50;;;;;;;;;;5099485;28;20229;-64
2021/07/24 03:32:33;;;;;;;5.37;2.70;;;;;;;;;;5099500;28;20233;-63
2021/07/24 03:35:02;;;;;;;6.73;2.60;;;;;;;;;;5099409;28;20267;-63
2021/07/24 03:37:29;;;;;;;4.93;2.70;;;;;;;;;;5099679;28;20212;-65
2021/07/24 03:39:59;;;;;;;4.03;2.97;;;;;;;;;;5099413;28;20203;-65
2021/07/24 03:42:27;;;;;;;4.90;2.50;;;;;;;;;;5099319;28;20759;-65
2021/07/24 03:44:55;;;;;;;3.00;2.80;;;;;;;;;;5099368;28;20210;-65
2021/07/24 03:47:23;;;;;;;3.30;2.73;;;;;;;;;;5097926;28;20209;-65
2021/07/24 03:49:50;;;;;;;4.83;2.80;;;;;;;;;;5098826;28;20235;-65
2021/07/24 03:52:18;;;;;;;5.10;2.87;;;;;;;;;;5099095;28;20239;-65
2021/07/24 03:54:46;;;;;;;7.20;2.97;;;;;;;;;;5099155;28;20220;-65
2021/07/24 03:57:16;;;;;;;4.57;2.80;;;;;;;;;;5099293;28;20208;-65
2021/07/24 03:59:44;;;;;;;3.00;2.67;;;;;;;;;;5099360;28;20288;-65
2021/07/24 04:02:18;;;;;;;4.17;2.97;;;;;;;;;;5099004;28;20231;-65
2021/07/24 04:04:50;;;;;;;4.93;2.97;;;;;;;;;;5098731;28;20214;-65
2021/07/24 04:07:18;;;;;;;5.80;2.93;;;;;;;;;;5098622;28;20211;-65
2021/07/24 04:09:47;;;;;;;6.63;2.80;;;;;;;;;;5098581;28;20228;-65
2021/07/24 04:12:16;;;;;;;7.13;3.47;;;;;;;;;;5098432;28;20219;-65
2021/07/24 04:14:45;;;;;;;5.17;2.63;;;;;;;;;;5098170;28;20217;-65
2021/07/24 04:17:13;;;;;;;3.70;2.73;;;;;;;;;;5097586;28;20203;-65
2021/07/24 04:19:42;;;;;;;4.27;3.33;;;;;;;;;;5097496;28;20199;-65
2021/07/24 04:22:09;;;;;;;6.63;2.97;;;;;;;;;;5098106;28;20230;-65
2021/07/24 04:24:37;;;;;;;2.80;2.50;;;;;;;;;;5110781;28;20250;-65
2021/07/24 04:27:07;;;;;;;3.00;2.80;;;;;;;;;;5100653;28;20214;-63
2021/07/24 04:29:36;;;;;;;3.93;3.03;;;;;;;;;;5098644;28;20231;-62
2021/07/24 04:32:04;;;;;;;4.80;2.80;;;;;;;;;;5098663;28;20229;-62
2021/07/24 04:34:32;;;;;;;4.57;3.17;;;;;;;;;;5098389;28;20205;-67
2021/07/24 04:37:01;;;;;;;7.30;3.00;;;;;;;;;;5098524;28;20209;-63
2021/07/24 04:39:29;;;;;;;4.63;2.80;;;;;;;;;;5098290;28;20317;-63
2021/07/24 04:41:56;;;;;;;5.03;3.00;;;;;;;;;;5098391;28;20295;-65
2021/07/24 04:44:24;;;;;;;5.37;3.17;;;;;;;;;;5098336;28;20210;-64
2021/07/24 04:46:54;;;;;;;6.07;3.00;;;;;;;;;;5096847;28;20316;-63
2021/07/24 04:49:22;;;;;;;7.40;3.13;;;;;;;;;;5097834;28;20209;-63
2021/07/24 04:51:50;;;;;;;3.80;3.20;;;;;;;;;;5097755;28;20236;-63
2021/07/24 04:54:18;;;;;;;4.70;3.07;;;;;;;;;;5098133;28;20205;-63
2021/07/24 04:56:45;;;;;;;4.30;2.83;;;;;;;;;;5097723;28;20212;-63
2021/07/24 04:59:14;;;;;;;4.57;3.07;;;;;;;;;;5097908;28;20216;-63
2021/07/24 05:01:42;;;;;;;4.63;3.00;;;;;;;;;;5097312;28;20218;-64
2021/07/24 05:04:11;;;;;;;5.43;3.50;;;;;;;;;;5097071;28;20209;-64
2021/07/24 05:06:39;;;;;;;7.40;3.23;;;;;;;;;;5096911;28;20733;-63
2021/07/24 05:09:07;;;;;;;6.27;3.20;;;;;;;;;;5096950;28;20209;-63
2021/07/24 05:11:35;;;;;;;6.17;3.90;;;;;;;;;;5096943;28;20226;-63
2021/07/24 05:14:03;;;;;;;6.07;2.70;;;;;;;;;;5097012;28;20205;-65
2021/07/24 05:16:31;;;;;;;4.93;3.60;;;;;;;;;;5096795;28;20231;-65
2021/07/24 05:19:00;;;;;;;6.77;3.73;;;;;;;;;;5096145;28;20194;-66
2021/07/24 05:21:30;;;;;;;6.33;2.80;;;;;;;;;;5101480;28;20273;-66
2021/07/24 05:23:58;;;;;;;4.10;2.80;;;;;;;;;;5099379;28;20194;-67
2021/07/24 05:26:26;;;;;;;4.93;3.17;;;;;;;;;;5098214;28;20197;-67
2021/07/24 05:28:53;;;;;;;3.70;3.20;;;;;;;;;;5096933;28;20197;-67
2021/07/24 05:31:22;;;;;;;6.07;3.50;;;;;;;;;;5098442;28;20228;-67
2021/07/24 05:33:50;;;;;;;3.90;3.10;;;;;;;;;;5098771;28;20212;-66
2021/07/24 05:36:18;;;;;;;7.43;3.53;;;;;;;;;;5096898;28;20294;-67
2021/07/24 05:38:48;;;;;;;4.77;3.33;;;;;;;;;;5097147;28;20232;-67
2021/07/24 05:41:15;;;;;;;4.43;3.43;;;;;;;;;;5094819;28;20210;-68
2021/07/24 05:43:43;;;;;;;8.77;4.03;;;;;;;;;;5095703;28;20624;-68
2021/07/24 05:46:11;;;;;;;6.47;3.77;;;;;;;;;;5095669;28;20220;-68
2021/07/24 05:48:39;;;;;;;5.97;3.40;;;;;;;;;;5095905;28;20203;-68
2021/07/24 05:51:08;;;;;;;5.03;3.17;;;;;;;;;;5093879;28;20227;-67
2021/07/24 05:53:36;;;;;;;4.90;3.63;;;;;;;;;;5096747;28;20660;-67
2021/07/24 05:56:06;;;;;;;5.73;3.47;;;;;;;;;;5096669;28;20196;-66
2021/07/24 05:58:34;;;;;;;4.23;3.30;;;;;;;;;;5097473;28;20198;-66
2021/07/24 06:01:02;;;;;;;7.27;3.77;;;;;;;;;;5096413;28;20286;-66
2021/07/24 06:03:30;;;;;;;4.67;3.30;;;;;;;;;;5095913;28;20237;-66
2021/07/24 06:06:01;;;;;;;6.63;3.93;;;;;;;;;;5096214;28;20207;-66
2021/07/24 06:08:29;;;;;;;3.43;3.13;;;;;;;;;;5096035;28;20439;-66
2021/07/24 06:10:58;;;;;;;3.80;3.10;;;;;;;;;;5099675;28;20611;-66
2021/07/24 06:13:28;;;;;;;5.87;3.70;;;;;;;;;;5100112;28;20229;-66
2021/07/24 06:15:56;;;;;;;4.57;3.67;;;;;;;;;;5100738;28;20210;-66
2021/07/24 06:18:24;;;;;;;3.67;3.33;;;;;;;;;;5106399;28;20668;-67
2021/07/24 06:20:52;;;;;;;6.83;3.60;;;;;;;;;;5102241;28;20279;-73
2021/07/24 06:23:20;;;;;;;4.13;3.23;;;;;;;;;;5108891;28;20221;-72
2021/07/24 06:25:49;;;;;;;8.47;3.50;;;;;;;;;;5100613;28;20203;-73
2021/07/24 06:28:17;;;;;;;7.50;3.43;;;;;;;;;;5101412;28;20206;-72
2021/07/24 06:30:47;;;;;;;4.00;3.50;;;;;;;;;;5103951;28;20221;-72
2021/07/24 06:33:15;;;;;;;4.87;3.47;;;;;;;;;;5108389;28;20647;-72
2021/07/24 06:35:43;;;;;;;6.87;3.60;;;;;;;;;;5111247;28;20194;-72
2021/07/24 06:38:12;;;;;;;5.50;3.27;;;;;;;;;;5108616;28;20241;-73
2021/07/24 06:40:40;;;;;;;7.23;3.30;;;;;;;;;;5107069;28;20199;-72
2021/07/24 06:43:08;;;;;;;5.70;3.87;;;;;;;;;;5110321;28;20220;-72
2021/07/24 06:45:35;;;;;;;5.70;4.10;;;;;;;;;;5103421;28;20195;-72
2021/07/24 06:48:05;;;;;;;5.87;4.10;;;;;;;;;;5090606;28;20652;-74
2021/07/24 06:50:35;;;;;;;6.27;4.00;;;;;;;;;;5091458;28;20209;-74
2021/07/24 06:53:03;;;;;;;5.67;3.90;;;;;;;;;;5102247;28;20678;-73
2021/07/24 06:55:31;;;;;;;3.73;3.30;;;;;;;;;;5102785;28;20671;-74
2021/07/24 06:58:01;;;;;;;4.60;3.57;;;;;;;;;;5100342;28;20365;-74
2021/07/24 07:00:35;;;;;;;7.43;3.80;;;;;;;;;;5100155;28;20291;-74
2021/07/24 07:03:05;;;;;;;7.53;3.80;;;;;;;;;;5112337;28;20231;-74
2021/07/24 07:05:35;;;;;;;6.00;3.53;;;;;;;;;;5120298;28;20208;-68
2021/07/24 07:08:03;;;;;;;7.03;3.83;;;;;;;;;;5120464;28;20299;-72
2021/07/24 07:10:31;;;;;;;7.33;3.40;;;;;;;;;;5120760;28;20271;-72
2021/07/24 07:12:59;;;;;;;7.27;3.83;;;;;;;;;;5106847;28;20228;-72
2021/07/24 07:15:28;;;;;;;4.80;3.17;;;;;;;;;;5099254;28;20755;-71
2021/07/24 07:17:56;;;;;;;4.80;3.23;;;;;;;;;;5093775;28;20207;-72
2021/07/24 07:20:25;;;;;;;3.53;3.00;;;;;;;;;;5099143;28;20218;-71
2021/07/24 07:22:53;;;;;;;5.40;3.63;;;;;;;;;;5114397;28;20220;-71
2021/07/24 07:25:21;;;;;;;3.97;3.27;;;;;;;;;;5115212;28;20687;-72
2021/07/24 07:27:49;;;;;;;5.80;3.73;;;;;;;;;;5098710;28;20670;-71
2021/07/24 07:30:19;;;;;;;4.50;3.50;;;;;;;;;;5099465;28;20673;-72
2021/07/24 07:32:47;;;;;;;6.00;3.20;;;;;;;;;;5098568;28;20233;-72
2021/07/24 07:35:15;;;;;;;4.80;3.70;;;;;;;;;;5098871;28;20210;-72
2021/07/24 07:37:48;;;;;;;4.87;3.63;;;;;;;;;;5098665;28;20209;-70
2021/07/24 07:40:16;;;;;;;4.97;3.73;;;;;;;;;;5099205;28;20214;-70
2021/07/24 07:46:12;;;;;;;4.90;3.43;;;;;;;;;;5088942;28;20313;-75
2021/07/24 07:48:41;;;;;;;6.27;3.93;;;;;;;;;;5102189;28;20562;-75
2021/07/24 07:51:10;;;;;;;3.83;3.07;;;;;;;;;;5104256;28;20210;-75
2021/07/24 07:53:39;;;;;;;6.20;3.70;;;;;;;;;;5098339;28;20210;-76
2021/07/24 07:56:09;;;;;;;7.87;4.23;;;;;;;;;;5107033;28;20197;-72
2021/07/24 07:58:37;;;;;;;6.20;3.40;;;;;;;;;;5104785;28;20204;-74
2021/07/24 08:01:09;;;;;;;7.73;4.07;;;;;;;;;;5105563;28;20223;-75
2021/07/24 08:03:38;;;;;;;5.10;3.80;;;;;;;;;;5088748;28;20569;-69
2021/07/24 08:06:06;;;;;;;5.00;3.13;;;;;;;;;;5098255;28;20561;-71
2021/07/24 08:08:34;;;;;;;5.57;3.10;;;;;;;;;;5098533;28;20200;-69
2021/07/24 08:11:04;;;;;;;5.10;3.60;;;;;;;;;;5097896;28;20282;-70
2021/07/24 08:13:32;;;;;;;5.57;3.47;;;;;;;;;;5095299;28;20703;-71
2021/07/24 08:16:00;;;;;;;3.80;3.37;;;;;;;;;;5089939;28;20201;-70
2021/07/24 08:18:28;;;;;;;3.90;2.87;;;;;;;;;;5098229;28;20201;-71
2021/07/24 08:20:56;;;;;;;5.97;3.10;;;;;;;;;;5098572;28;20675;-70
2021/07/24 08:23:24;;;;;;;4.80;3.20;;;;;;;;;;5117582;28;20209;-70
2021/07/24 08:25:53;;;;;;;4.63;3.30;;;;;;;;;;5110771;28;20209;-69
2021/07/24 08:28:26;;;;;;;6.30;3.67;;;;;;;;;;5098444;28;20201;-71
2021/07/24 08:30:54;;;;;;;5.17;3.20;;;;;;;;;;5092395;28;20694;-69
2021/07/24 08:33:22;;;;;;;5.17;3.63;;;;;;;;;;5097331;28;20229;-68
2021/07/24 08:35:50;;;;;;;5.50;3.60;;;;;;;;;;5098362;28;20206;-69
2021/07/24 08:38:18;;;;;;;6.17;3.87;;;;;;;;;;5098127;28;20752;-68
2021/07/24 08:40:46;;;;;;;6.53;3.73;;;;;;;;;;5098023;28;20235;-70
2021/07/24 08:43:14;;;;;;;4.83;3.50;;;;;;;;;;5098326;28;20227;-68
2021/07/24 08:45:44;;;;;;;4.93;3.60;;;;;;;;;;5098019;28;20239;-69
2021/07/24 08:48:12;;;;;;;5.73;3.37;;;;;;;;;;5089603;28;20212;-70
2021/07/24 08:50:41;;;;;;;3.67;3.37;;;;;;;;;;5094182;28;20247;-70
2021/07/24 08:53:09;;;;;;;4.93;3.60;;;;;;;;;;5098127;28;20227;-70
2021/07/24 08:55:40;;;;;;;5.37;3.47;;;;;;;;;;5098384;28;20213;-69
2021/07/24 08:58:13;;;;;;;6.83;3.90;;;;;;;;;;5091493;28;20647;-67
2021/07/24 09:00:45;;;;;;;5.50;3.33;;;;;;;;;;5097597;28;20259;-68
2021/07/24 09:03:17;;;;;;;4.13;3.73;;;;;;;;;;5097136;28;20599;-71
2021/07/24 09:05:49;;;;;;;5.20;3.90;;;;;;;;;;5087352;28;20232;-71
2021/07/24 09:08:17;;;;;;;5.53;3.87;;;;;;;;;;5097734;28;20208;-69
2021/07/24 09:10:47;;;;;;;5.97;3.63;;;;;;;;;;5097361;28;20291;-70
2021/07/24 09:13:15;;;;;;;4.47;3.63;;;;;;;;;;5097072;28;20232;-69
2021/07/24 09:15:45;;;;;;;6.67;3.47;;;;;;;;;;5097139;28;20761;-70
2021/07/24 09:18:12;;;;;;;5.67;4.50;;;;;;;;;;5097279;28;20290;-72
2021/07/24 09:20:41;;;;;;;4.07;3.23;;;;;;;;;;5097339;28;20239;-69
2021/07/24 09:23:25;;;;;;;9.00;3.70;;;;;;;;;;5093880;28;20272;-72
2021/07/24 09:25:53;;;;;;;5.03;4.00;;;;;;;;;;5097492;28;20269;-70
2021/07/24 09:28:25;;;;;;;7.43;3.93;;;;;;;;;;5097661;28;20209;-70
2021/07/24 09:30:54;;;;;;;6.43;3.43;;;;;;;;;;5097929;28;20290;-71
2021/07/24 09:33:22;;;;;;;6.20;4.10;;;;;;;;;;5097148;28;20746;-71
2021/07/24 09:36:01;;;;;;;5.07;4.00;;;;;;;;;;5098106;28;20679;-69
2021/07/24 09:38:30;;;;;;;4.30;3.70;;;;;;;;;;5095146;28;20292;-73
2021/07/24 09:40:58;;;;;;;4.80;4.30;;;;;;;;;;5091607;28;20296;-72
2021/07/24 09:43:31;;;;;;;4.90;4.23;;;;;;;;;;5096987;28;20216;-72
2021/07/24 09:46:09;;;;;;;4.13;3.67;;;;;;;;;;5099899;28;20205;-72
2021/07/24 09:48:38;;;;;;;4.17;3.43;;;;;;;;;;5101269;28;20249;-73
2021/07/24 09:51:06;;;;;;;4.43;3.60;;;;;;;;;;5114410;28;20235;-69
2021/07/24 09:53:37;;;;;;;5.10;4.23;;;;;;;;;;5121773;28;20234;-70
2021/07/24 09:56:06;;;;;;;6.13;3.70;;;;;;;;;;5106554;28;20212;-68
2021/07/24 09:58:34;;;;;;;4.67;3.90;;;;;;;;;;5109093;28;20266;-68
2021/07/24 10:01:03;;;;;;;4.37;3.97;;;;;;;;;;5121229;28;20205;-69
2021/07/24 10:03:35;;;;;;;3.83;3.43;;;;;;;;;;5120665;28;20201;-68
2021/07/24 10:06:10;;;;;;;4.20;3.80;;;;;;;;;;5106233;28;20206;-67
2021/07/24 10:08:39;;;;;;;5.40;4.37;;;;;;;;;;5099878;28;20218;-67
2021/07/24 10:11:07;;;;;;;5.27;3.80;;;;;;;;;;5099785;28;20196;-67
2021/07/24 10:13:35;;;;;;;4.50;3.70;;;;;;;;;;5099934;28;20225;-65
2021/07/24 10:16:05;;;;;;;4.70;3.60;;;;;;;;;;5100246;28;20206;-63
2021/07/24 10:18:35;;;;;;;4.03;3.43;;;;;;;;;;5106577;28;20221;-66
2021/07/24 10:21:04;;;;;;;5.03;3.80;;;;;;;;;;5121261;28;20571;-66
2021/07/24 10:23:33;;;;;;;5.97;3.90;;;;;;;;;;5088959;28;20204;-67
2021/07/24 10:26:06;;;;;;;4.40;4.00;;;;;;;;;;5100602;28;20213;-67
2021/07/24 10:28:36;;;;;;;5.53;4.23;;;;;;;;;;5100662;28;20295;-66
2021/07/24 10:31:11;;;;;;;6.90;4.60;;;;;;;;;;5100000;28;20616;-68
2021/07/24 10:33:41;;;;;;;6.77;3.70;;;;;;;;;;5099726;28;20773;-67
2021/07/24 10:36:13;;;;;;;7.37;4.13;;;;;;;;;;5098990;28;20203;-68
2021/07/24 10:38:56;;;;;;;5.70;4.93;;;;;;;;;;5104502;28;20247;-67
2021/07/24 10:41:37;;;;;;;6.17;4.37;;;;;;;;;;5097220;28;20220;-66
2021/07/24 10:44:06;;;;;;;6.07;4.50;;;;;;;;;;5092915;28;20278;-67
2021/07/24 10:46:52;;;;;;;6.67;4.70;;;;;;;;;;5094834;28;20211;-66
2021/07/24 10:49:35;;;;;;;7.50;4.63;;;;;;;;;;5098866;28;20240;-66
2021/07/24 10:52:05;;;;;;;4.57;3.70;;;;;;;;;;5099082;28;20698;-67
2021/07/24 10:54:33;;;;;;;5.30;3.97;;;;;;;;;;5099998;28;20633;-68
2021/07/24 10:57:03;;;;;;;4.93;4.20;;;;;;;;;;5102790;28;20277;-64
2021/07/24 10:59:31;;;;;;;6.43;4.50;;;;;;;;;;5119402;28;20221;-65
2021/07/24 11:01:59;;;;;;;7.93;4.50;;;;;;;;;;5119086;28;20310;-66
2021/07/24 11:04:41;;;;;;;7.07;4.50;;;;;;;;;;5118867;28;20207;-67
2021/07/24 11:07:27;;;;;;;5.70;3.83;;;;;;;;;;5118616;28;20215;-65
2021/07/24 11:10:06;;;;;;;7.60;4.47;;;;;;;;;;5117762;28;20551;-66
2021/07/24 11:12:36;;;;;;;5.50;4.33;;;;;;;;;;5102187;28;20262;-68
2021/07/24 11:15:05;;;;;;;4.80;4.30;;;;;;;;;;5100141;28;20215;-68
2021/07/24 11:17:33;;;;;;;6.63;4.70;;;;;;;;;;5104520;28;20285;-67
2021/07/24 11:20:31;;;;;;;7.57;4.03;;;;;;;;;;5106855;28;20202;-66
2021/07/24 11:23:01;;;;;;;7.40;4.60;;;;;;;;;;5103868;28;20713;-65
2021/07/24 11:25:32;;;;;;;5.97;4.63;;;;;;;;;;5107486;28;20203;-66
2021/07/24 11:28:01;;;;;;;7.67;3.93;;;;;;;;;;5107215;28;20197;-66
2021/07/24 11:30:29;;;;;;;7.47;4.33;;;;;;;;;;5106912;28;20608;-66
2021/07/24 11:32:58;;;;;;;7.80;4.80;;;;;;;;;;5107149;28;20591;-65
2021/07/24 11:35:28;;;;;;;7.83;4.30;;;;;;;;;;5104160;28;20201;-68
2021/07/24 11:37:57;;;;;;;8.93;4.97;;;;;;;;;;5046084;28;1660131;-68
2021/07/24 11:40:25;;;;;;;4.85;4.00;;;;;;;;;;5105268;28;20208;-68
2021/07/24 11:42:59;;;;;;;5.05;4.55;;;;;;;;;;5103476;28;20216;-67
2021/07/24 11:45:27;;;;;;;5.82;5.00;;;;;;;;;;5103925;28;20666;-66
2021/07/24 11:48:11;;;;;;;6.80;4.63;;;;;;;;;;5105322;28;20284;-66
2021/07/24 11:50:40;;;;;;;4.28;3.90;;;;;;;;;;5105315;28;20198;-65
2021/07/24 11:53:08;;;;;;;5.10;4.35;;;;;;;;;;5103433;28;20221;-65
2021/07/24 11:55:36;;;;;;;5.68;4.68;;;;;;;;;;5098907;28;20291;-64
2021/07/24 11:58:06;;;;;;;7.18;4.50;;;;;;;;;;5116568;28;20242;-66
2021/07/24 12:00:36;;;;;;;5.80;4.53;;;;;;;;;;5102881;28;20204;-68
2021/07/24 12:03:15;;;;;;;9.38;3.90;;;;;;;;;;5089271;28;20220;-68
2021/07/24 12:05:43;;;;;;;4.93;4.50;;;;;;;;;;5081610;28;20210;-66
2021/07/24 12:08:12;;;;;;;4.72;4.13;;;;;;;;;;5073884;28;20209;-66
2021/07/24 12:10:41;;;;;;;5.90;4.93;;;;;;;;;;5093639;28;20207;-66
2021/07/24 12:13:12;;;;;;;5.68;3.60;;;;;;;;;;5098406;28;20336;-66
2021/07/24 12:16:03;;;;;;;5.57;3.40;;;;;;;;;;5093667;28;20232;-66
2021/07/24 12:18:35;;;;;;;5.22;4.10;;;;;;;;;;5077102;28;20206;-66
2021/07/24 12:21:08;;;;;;;3.30;3.00;;;;;;;;;;5081002;28;20645;-67
2021/07/24 12:23:36;;;;;;;4.13;3.17;;;;;;;;;;5089255;28;20219;-66
2021/07/24 12:26:11;;;;;;;2.88;2.63;;;;;;;;;;5074580;28;20229;-65
2021/07/24 12:28:42;;;;;;;5.57;3.10;;;;;;;;;;5087251;28;20201;-66
2021/07/24 12:31:16;;;;;;;5.17;3.50;;;;;;;;;;5078896;28;20226;-65
2021/07/24 12:33:45;;;;;;;4.97;3.20;;;;;;;;;;5096362;28;20287;-66
2021/07/24 12:36:14;;;;;;;4.03;3.40;;;;;;;;;;5092698;28;20210;-66
2021/07/24 12:38:42;;;;;;;5.43;3.90;;;;;;;;;;5077879;28;20596;-65
2021/07/24 12:41:10;;;;;;;6.13;3.87;;;;;;;;;;5074740;28;20678;-66
2021/07/24 12:43:41;;;;;;;6.90;3.83;;;;;;;;;;5081042;28;20205;-66
2021/07/24 12:46:14;;;;;;;5.90;3.70;;;;;;;;;;5079994;28;20199;-65
2021/07/24 12:48:42;;;;;;;4.30;3.90;;;;;;;;;;5095412;28;20203;-64
2021/07/24 12:51:11;;;;;;;7.60;3.27;;;;;;;;;;5090734;28;20662;-66
2021/07/24 12:53:40;;;;;;;5.07;3.40;;;;;;;;;;5094699;28;20204;-66
2021/07/24 12:56:08;;;;;;;5.67;3.37;;;;;;;;;;5093303;28;20332;-66
2021/07/24 12:58:38;;;;;;;6.93;4.30;;;;;;;;;;5092811;28;20205;-65
2021/07/24 13:01:15;;;;;;;4.90;3.97;;;;;;;;;;5084952;28;20209;-66
2021/07/24 13:03:44;;;;;;;5.23;3.37;;;;;;;;;;5096376;28;20205;-65
2021/07/24 13:06:16;;;;;;;5.30;3.00;;;;;;;;;;5096878;28;20263;-66
2021/07/24 13:08:44;;;;;;;3.83;3.10;;;;;;;;;;5097432;28;20211;-65
2021/07/24 13:11:12;;;;;;;5.73;3.47;;;;;;;;;;5096476;28;20233;-66
2021/07/24 13:13:40;;;;;;;4.83;3.87;;;;;;;;;;5093423;28;20217;-66
2021/07/24 13:16:08;;;;;;;3.77;3.00;;;;;;;;;;5084049;28;20227;-66
2021/07/24 13:18:38;;;;;;;3.87;3.47;;;;;;;;;;5097409;28;20664;-66
2021/07/24 13:21:06;;;;;;;5.43;3.40;;;;;;;;;;5096510;28;20553;-66
2021/07/24 13:23:34;;;;;;;3.67;3.30;;;;;;;;;;5096051;28;20214;-66
2021/07/24 13:28:14;;;;;;;3.93;3.00;;;;;;;;;;5086369;28;20200;-65
2021/07/24 13:29:04;;;;;;;4.90;3.20;;;;;;;;;;5096434;28;20197;-66
2021/07/24 13:31:32;;;;;;;4.20;3.10;;;;;;;;;;5085603;28;20699;-66
2021/07/24 13:34:01;;;;;;;4.53;2.67;;;;;;;;;;5097436;28;20208;-68
2021/07/24 13:36:29;;;;;;;2.50;2.30;;;;;;;;;;5083348;28;20205;-68
2021/07/24 13:38:58;;;;;;;3.27;2.50;;;;;;;;;;5097485;28;20326;-66
2021/07/24 13:41:26;;;;;;;2.90;2.60;;;;;;;;;;5083700;28;20226;-67
2021/07/24 13:43:53;;;;;;;3.33;2.37;;;;;;;;;;5097865;28;20208;-68
2021/07/24 13:46:21;;;;;;;5.07;2.57;;;;;;;;;;5096464;28;20543;-68
2021/07/24 13:48:49;;;;;;;4.87;2.43;;;;;;;;;;5096526;28;20202;-68
2021/07/24 13:51:25;;;;;;;4.70;2.30;;;;;;;;;;5097184;28;20262;-69
2021/07/24 13:53:54;;;;;;;3.23;2.50;;;;;;;;;;5092986;28;20201;-70
2021/07/24 13:56:21;;;;;;;3.27;2.40;;;;;;;;;;5092061;28;20225;-70
2021/07/24 13:58:49;;;;;;;4.60;2.60;;;;;;;;;;5099182;28;20204;-71
2021/07/24 14:01:18;;;;;;;6.03;2.43;;;;;;;;;;5099252;28;20227;-72
2021/07/24 14:03:46;;;;;;;6.27;2.97;;;;;;;;;;5097054;28;20200;-72
2021/07/24 14:06:14;;;;;;;5.40;2.47;;;;;;;;;;5089683;28;20642;-71
2021/07/24 14:08:44;;;;;;;5.77;2.93;;;;;;;;;;5097557;28;20209;-73
2021/07/24 14:11:15;;;;;;;13.50;3.50;;;;;;;;;;5089145;28;20675;-74
2021/07/24 14:13:44;;;;;;;6.17;2.80;;;;;;;;;;5088685;28;20209;-73
2021/07/24 14:16:12;;;;;;;11.03;3.90;;;;;;;;;;5086887;28;20237;-73
2021/07/24 14:18:40;;;;;;;10.90;4.50;;;;;;;;;;5080022;28;20195;-73
2021/07/24 14:21:11;;;;;;;6.47;3.30;;;;;;;;;;5080220;28;20200;-74
2021/07/24 14:23:39;;;;;;;4.30;3.23;;;;;;;;;;5077846;28;20284;-75
2021/07/24 14:26:08;;;;;;;5.50;3.23;;;;;;;;;;5078405;28;20204;-73
2021/07/24 14:28:36;;;;;;;3.23;2.93;;;;;;;;;;5078482;28;20205;-73
2021/07/24 14:31:04;;;;;;;5.70;2.90;;;;;;;;;;5083826;28;20207;-74
2021/07/24 14:33:34;;;;;;;3.43;2.60;;;;;;;;;;5082562;28;20211;-74
2021/07/24 14:36:02;;;;;;;5.00;2.80;;;;;;;;;;5083633;28;20216;-74
2021/07/24 14:38:30;;;;;;;3.90;2.77;;;;;;;;;;5109587;28;20235;-74
2021/07/24 14:41:04;;;;;;;3.47;2.40;;;;;;;;;;5106598;28;20226;-73
2021/07/24 14:43:34;;;;;;;4.17;2.37;;;;;;;;;;5107307;28;20199;-74
2021/07/24 14:46:02;;;;;;;4.47;2.70;;;;;;;;;;5105793;28;20248;-73
2021/07/24 14:48:30;;;;;;;4.80;2.67;;;;;;;;;;5107188;28;20200;-74
2021/07/24 14:50:58;;;;;;;3.53;2.20;;;;;;;;;;5108383;28;20206;-74
2021/07/24 14:53:26;;;;;;;3.73;2.30;;;;;;;;;;5104501;28;20210;-74
2021/07/24 14:55:54;;;;;;;3.90;2.10;;;;;;;;;;5100078;28;20219;-75
2021/07/24 14:58:23;;;;;;;3.47;2.70;;;;;;;;;;5105545;28;20203;-74
2021/07/24 15:00:52;;;;;;;5.17;2.63;;;;;;;;;;5117254;28;20211;-74
2021/07/24 15:03:20;;;;;;;3.30;2.50;;;;;;;;;;5103350;28;20224;-74